sensor_id;sensor_type;location;lat;lon;timestamp;pressure;altitude;pressure_sealevel;temperature;humidity
79230;BME280;68663;49.122;17.544;2023-07-20T00:01:34;98659.03;;;26.15;47.53
79230;BME280;68663;49.122;17.544;2023-07-20T00:04:00;98672.66;;;26.07;47.35
79230;BME280;68663;49.122;17.544;2023-07-20T00:06:26;98678.19;;;26.11;47.48
79230;BME280;68663;49.122;17.544;2023-07-20T00:08:56;98680.06;;;25.92;47.60
79230;BME280;68663;49.122;17.544;2023-07-20T00:11:26;98686.81;;;26.07;47.62
79230;BME280;68663;49.122;17.544;2023-07-20T00:13:51;98687.34;;;26.15;47.39
79230;BME280;68663;49.122;17.544;2023-07-20T00:16:17;98687.22;;;26.18;47.72
79230;BME280;68663;49.122;17.544;2023-07-20T00:18:42;98673.72;;;26.22;47.37
79230;BME280;68663;49.122;17.544;2023-07-20T00:21:08;98676.88;;;26.24;47.55
79230;BME280;68663;49.122;17.544;2023-07-20T00:23:33;98692.63;;;26.25;47.31
79230;BME280;68663;49.122;17.544;2023-07-20T00:25:59;98679.56;;;26.28;47.01
79230;BME280;68663;49.122;17.544;2023-07-20T00:28:24;98682.41;;;26.28;47.12
79230;BME280;68663;49.122;17.544;2023-07-20T00:30:50;98684.44;;;26.27;46.87
79230;BME280;68663;49.122;17.544;2023-07-20T00:33:17;98690.13;;;26.27;47.13
79230;BME280;68663;49.122;17.544;2023-07-20T00:35:43;98695.78;;;26.27;47.11
79230;BME280;68663;49.122;17.544;2023-07-20T00:38:09;98688.06;;;26.28;46.87
79230;BME280;68663;49.122;17.544;2023-07-20T00:40:38;98683.66;;;26.27;47.06
79230;BME280;68663;49.122;17.544;2023-07-20T00:43:04;98695.78;;;26.27;46.94
79230;BME280;68663;49.122;17.544;2023-07-20T00:45:30;98697.50;;;26.25;47.26
79230;BME280;68663;49.122;17.544;2023-07-20T00:47:56;98701.13;;;26.25;47.21
79230;BME280;68663;49.122;17.544;2023-07-20T00:50:24;98697.16;;;26.23;47.10
79230;BME280;68663;49.122;17.544;2023-07-20T00:52:49;98699.53;;;26.24;47.22
79230;BME280;68663;49.122;17.544;2023-07-20T00:55:15;98700.78;;;26.23;47.21
79230;BME280;68663;49.122;17.544;2023-07-20T00:57:41;98697.03;;;26.26;47.01
79230;BME280;68663;49.122;17.544;2023-07-20T01:00:07;98698.28;;;26.25;46.83
79230;BME280;68663;49.122;17.544;2023-07-20T01:02:33;98702.38;;;26.24;46.84
79230;BME280;68663;49.122;17.544;2023-07-20T01:04:58;98703.97;;;26.25;46.80
79230;BME280;68663;49.122;17.544;2023-07-20T01:07:31;98710.56;;;26.22;46.78
79230;BME280;68663;49.122;17.544;2023-07-20T01:13:00;98713.50;;;26.19;47.33
79230;BME280;68663;49.122;17.544;2023-07-20T01:15:26;98714.63;;;26.21;46.75
79230;BME280;68663;49.122;17.544;2023-07-20T01:17:52;98723.13;;;26.21;47.09
79230;BME280;68663;49.122;17.544;2023-07-20T01:20:19;98727.22;;;26.20;46.74
79230;BME280;68663;49.122;17.544;2023-07-20T01:31:21;98713.66;;;26.15;46.41
79230;BME280;68663;49.122;17.544;2023-07-20T01:33:49;98709.22;;;26.14;46.72
79230;BME280;68663;49.122;17.544;2023-07-20T01:36:17;98712.84;;;26.15;46.71
79230;BME280;68663;49.122;17.544;2023-07-20T01:38:43;98706.84;;;26.13;46.80
79230;BME280;68663;49.122;17.544;2023-07-20T01:41:10;98702.09;;;26.10;46.86
79230;BME280;68663;49.122;17.544;2023-07-20T01:43:36;98697.25;;;26.10;46.74
79230;BME280;68663;49.122;17.544;2023-07-20T01:46:01;98707.91;;;26.06;47.02
79230;BME280;68663;49.122;17.544;2023-07-20T01:48:27;98705.41;;;26.08;47.08
79230;BME280;68663;49.122;17.544;2023-07-20T01:50:52;98706.66;;;26.07;47.29
79230;BME280;68663;49.122;17.544;2023-07-20T01:53:18;98709.50;;;26.07;47.15
79230;BME280;68663;49.122;17.544;2023-07-20T01:55:43;98716.72;;;26.08;47.17
79230;BME280;68663;49.122;17.544;2023-07-20T01:58:08;98714.22;;;26.10;47.08
79230;BME280;68663;49.122;17.544;2023-07-20T02:03:52;98703.38;;;25.96;47.25
79230;BME280;68663;49.122;17.544;2023-07-20T02:06:18;98713.34;;;26.00;47.31
79230;BME280;68663;49.122;17.544;2023-07-20T02:08:43;98718.44;;;26.06;47.22
79230;BME280;68663;49.122;17.544;2023-07-20T02:11:08;98720.50;;;26.05;47.03
79230;BME280;68663;49.122;17.544;2023-07-20T02:13:35;98717.66;;;26.05;47.26
79230;BME280;68663;49.122;17.544;2023-07-20T02:16:00;98724.78;;;25.97;47.27
79230;BME280;68663;49.122;17.544;2023-07-20T02:18:26;98725.50;;;26.01;47.31
79230;BME280;68663;49.122;17.544;2023-07-20T02:20:53;98724.25;;;26.02;47.19
79230;BME280;68663;49.122;17.544;2023-07-20T02:23:19;98712.91;;;26.02;47.29
79230;BME280;68663;49.122;17.544;2023-07-20T02:25:44;98714.16;;;26.01;47.26
79230;BME280;68663;49.122;17.544;2023-07-20T02:28:13;98726.72;;;26.00;47.32
79230;BME280;68663;49.122;17.544;2023-07-20T02:30:38;98729.22;;;25.98;47.24
79230;BME280;68663;49.122;17.544;2023-07-20T02:33:07;98732.50;;;25.96;46.95
79230;BME280;68663;49.122;17.544;2023-07-20T02:35:32;98734.88;;;25.98;47.07
79230;BME280;68663;49.122;17.544;2023-07-20T02:37:58;98729.22;;;25.98;47.40
79230;BME280;68663;49.122;17.544;2023-07-20T02:40:23;98742.13;;;25.99;47.42
79230;BME280;68663;49.122;17.544;2023-07-20T02:42:49;98749.81;;;25.98;47.25
79230;BME280;68663;49.122;17.544;2023-07-20T02:45:14;98750.28;;;25.97;47.24
79230;BME280;68663;49.122;17.544;2023-07-20T02:47:40;98752.66;;;25.98;47.57
79230;BME280;68663;49.122;17.544;2023-07-20T02:50:07;98763.66;;;25.96;47.05
79230;BME280;68663;49.122;17.544;2023-07-20T02:52:33;98767.28;;;25.97;46.92
79230;BME280;68663;49.122;17.544;2023-07-20T02:54:58;98765.25;;;25.97;46.87
79230;BME280;68663;49.122;17.544;2023-07-20T02:57:24;98772.94;;;25.97;46.95
79230;BME280;68663;49.122;17.544;2023-07-20T02:59:50;98769.31;;;25.96;47.18
79230;BME280;68663;49.122;17.544;2023-07-20T03:02:15;98778.63;;;25.97;46.69
79230;BME280;68663;49.122;17.544;2023-07-20T03:04:41;98772.28;;;25.93;46.98
79230;BME280;68663;49.122;17.544;2023-07-20T03:07:06;98785.19;;;25.94;46.71
79230;BME280;68663;49.122;17.544;2023-07-20T03:09:32;98786.69;;;25.86;46.54
79230;BME280;68663;49.122;17.544;2023-07-20T03:11:58;98797.44;;;25.91;46.40
79230;BME280;68663;49.122;17.544;2023-07-20T03:14:23;98802.44;;;25.87;45.92
79230;BME280;68663;49.122;17.544;2023-07-20T03:16:49;98797.09;;;25.89;45.91
79230;BME280;68663;49.122;17.544;2023-07-20T03:19:15;98802.75;;;25.89;45.78
79230;BME280;68663;49.122;17.544;2023-07-20T03:21:40;98803.22;;;25.87;46.06
79230;BME280;68663;49.122;17.544;2023-07-20T03:24:07;98806.50;;;25.86;45.89
79230;BME280;68663;49.122;17.544;2023-07-20T03:26:34;98814.22;;;25.85;46.13
79230;BME280;68663;49.122;17.544;2023-07-20T03:28:59;98815.00;;;25.86;45.97
79230;BME280;68663;49.122;17.544;2023-07-20T03:31:25;98817.03;;;25.85;46.02
79230;BME280;68663;49.122;17.544;2023-07-20T03:33:50;98813.75;;;25.87;45.83
79230;BME280;68663;49.122;17.544;2023-07-20T03:36:15;98819.09;;;25.85;45.86
79230;BME280;68663;49.122;17.544;2023-07-20T03:38:41;98824.75;;;25.85;45.92
79230;BME280;68663;49.122;17.544;2023-07-20T03:41:06;98823.03;;;25.87;45.75
79230;BME280;68663;49.122;17.544;2023-07-20T03:43:32;98823.50;;;25.86;45.58
79230;BME280;68663;49.122;17.544;2023-07-20T03:45:57;98827.91;;;25.87;45.77
79230;BME280;68663;49.122;17.544;2023-07-20T03:48:23;98829.16;;;25.86;45.77
79230;BME280;68663;49.122;17.544;2023-07-20T03:50:51;98836.41;;;25.87;45.45
79230;BME280;68663;49.122;17.544;2023-07-20T03:53:17;98842.06;;;25.87;45.75
79230;BME280;68663;49.122;17.544;2023-07-20T03:55:46;98843.78;;;25.84;45.84
79230;BME280;68663;49.122;17.544;2023-07-20T03:58:12;98843.00;;;25.84;45.76
79230;BME280;68663;49.122;17.544;2023-07-20T04:00:38;98848.31;;;25.82;45.67
79230;BME280;68663;49.122;17.544;2023-07-20T04:03:04;98852.72;;;25.83;45.68
79230;BME280;68663;49.122;17.544;2023-07-20T04:05:29;98856.81;;;25.82;45.76
79230;BME280;68663;49.122;17.544;2023-07-20T04:07:55;98860.88;;;25.81;45.68
79230;BME280;68663;49.122;17.544;2023-07-20T04:10:20;98866.09;;;25.69;46.05
79230;BME280;68663;49.122;17.544;2023-07-20T04:12:45;98861.47;;;25.76;46.27
79230;BME280;68663;49.122;17.544;2023-07-20T04:15:14;98863.84;;;25.77;46.16
79230;BME280;68663;49.122;17.544;2023-07-20T04:17:40;98863.84;;;25.77;46.37
79230;BME280;68663;49.122;17.544;2023-07-20T04:20:07;98866.31;;;25.75;46.04
79230;BME280;68663;49.122;17.544;2023-07-20T04:22:32;98878.44;;;25.76;46.50
79230;BME280;68663;49.122;17.544;2023-07-20T04:24:58;98881.28;;;25.76;46.27
79230;BME280;68663;49.122;17.544;2023-07-20T04:27:23;98874.72;;;25.79;46.25
79230;BME280;68663;49.122;17.544;2023-07-20T04:29:48;98870.63;;;25.80;46.59
79230;BME280;68663;49.122;17.544;2023-07-20T04:32:14;98885.13;;;25.82;46.47
79230;BME280;68663;49.122;17.544;2023-07-20T04:34:39;98885.13;;;25.82;46.68
79230;BME280;68663;49.122;17.544;2023-07-20T04:37:05;98888.75;;;25.82;46.76
79230;BME280;68663;49.122;17.544;2023-07-20T04:39:32;98886.03;;;25.79;47.53
79230;BME280;68663;49.122;17.544;2023-07-20T04:41:57;98884.44;;;25.78;47.62
79230;BME280;68663;49.122;17.544;2023-07-20T04:44:23;98886.84;;;25.79;47.67
79230;BME280;68663;49.122;17.544;2023-07-20T04:46:48;98886.84;;;25.79;48.46
79230;BME280;68663;49.122;17.544;2023-07-20T04:49:14;98884.56;;;25.74;48.70
79230;BME280;68663;49.122;17.544;2023-07-20T04:51:40;98892.28;;;25.74;49.13
79230;BME280;68663;49.122;17.544;2023-07-20T04:54:05;98888.53;;;25.77;48.34
79230;BME280;68663;49.122;17.544;2023-07-20T04:56:31;98890.69;;;25.73;49.07
79230;BME280;68663;49.122;17.544;2023-07-20T04:58:56;98898.28;;;25.76;48.88
79230;BME280;68663;49.122;17.544;2023-07-20T05:01:22;98895.78;;;25.78;48.93
79230;BME280;68663;49.122;17.544;2023-07-20T05:03:48;98903.94;;;25.76;48.92
79230;BME280;68663;49.122;17.544;2023-07-20T05:06:14;98908.69;;;25.79;49.50
79230;BME280;68663;49.122;17.544;2023-07-20T05:08:40;98920.34;;;25.81;49.67
79230;BME280;68663;49.122;17.544;2023-07-20T05:11:05;98919.22;;;25.78;49.50
79230;BME280;68663;49.122;17.544;2023-07-20T05:13:31;98910.28;;;25.80;49.68
79230;BME280;68663;49.122;17.544;2023-07-20T05:15:56;98914.69;;;25.81;49.38
79230;BME280;68663;49.122;17.544;2023-07-20T05:18:22;98908.47;;;25.86;49.33
79230;BME280;68663;49.122;17.544;2023-07-20T05:20:48;98913.22;;;25.89;49.47
79230;BME280;68663;49.122;17.544;2023-07-20T05:23:14;98905.50;;;25.89;49.14
79230;BME280;68663;49.122;17.544;2023-07-20T05:25:40;98912.31;;;25.92;49.19
79230;BME280;68663;49.122;17.544;2023-07-20T05:28:06;98907.00;;;25.94;49.35
79230;BME280;68663;49.122;17.544;2023-07-20T05:30:31;98902.56;;;25.93;49.10
79230;BME280;68663;49.122;17.544;2023-07-20T05:32:57;98894.66;;;25.88;48.92
79230;BME280;68663;49.122;17.544;2023-07-20T05:35:22;98914.00;;;25.77;49.22
79230;BME280;68663;49.122;17.544;2023-07-20T05:37:48;98902.81;;;25.86;49.22
79230;BME280;68663;49.122;17.544;2023-07-20T05:40:14;98901.09;;;25.88;49.20
79230;BME280;68663;49.122;17.544;2023-07-20T05:42:44;98906.66;;;25.92;49.22
79230;BME280;68663;49.122;17.544;2023-07-20T05:45:09;98909.38;;;25.95;48.82
79230;BME280;68663;49.122;17.544;2023-07-20T05:47:35;98919.00;;;25.98;48.93
79230;BME280;68663;49.122;17.544;2023-07-20T05:50:00;98916.50;;;26.00;48.82
79230;BME280;68663;49.122;17.544;2023-07-20T05:52:26;98916.88;;;26.02;48.59
79230;BME280;68663;49.122;17.544;2023-07-20T05:54:51;98915.97;;;26.05;48.69
79230;BME280;68663;49.122;17.544;2023-07-20T05:57:17;98919.13;;;26.07;48.90
79230;BME280;68663;49.122;17.544;2023-07-20T05:59:42;98917.44;;;26.10;48.77
79230;BME280;68663;49.122;17.544;2023-07-20T06:02:10;98909.25;;;26.12;48.91
79230;BME280;68663;49.122;17.544;2023-07-20T06:04:36;98907.22;;;26.12;48.53
79230;BME280;68663;49.122;17.544;2023-07-20T06:07:01;98909.16;;;26.15;48.37
79230;BME280;68663;49.122;17.544;2023-07-20T06:09:27;98913.56;;;26.16;48.40
79230;BME280;68663;49.122;17.544;2023-07-20T06:11:53;98913.44;;;26.20;48.37
79230;BME280;68663;49.122;17.544;2023-07-20T06:14:18;98915.03;;;26.21;47.89
79230;BME280;68663;49.122;17.544;2023-07-20T06:16:44;98914.56;;;26.22;48.09
79230;BME280;68663;49.122;17.544;2023-07-20T06:19:10;98919.78;;;26.24;47.92
79230;BME280;68663;49.122;17.544;2023-07-20T06:21:38;98918.53;;;26.25;47.81
79230;BME280;68663;49.122;17.544;2023-07-20T06:24:03;98922.50;;;26.27;47.87
79230;BME280;68663;49.122;17.544;2023-07-20T06:26:29;98915.59;;;26.28;47.96
79230;BME280;68663;49.122;17.544;2023-07-20T06:28:56;98927.72;;;26.29;47.66
79230;BME280;68663;49.122;17.544;2023-07-20T06:31:21;98917.16;;;26.29;47.72
79230;BME280;68663;49.122;17.544;2023-07-20T06:33:46;98928.06;;;26.31;47.62
79230;BME280;68663;49.122;17.544;2023-07-20T06:36:12;98926.00;;;26.31;47.95
79230;BME280;68663;49.122;17.544;2023-07-20T06:38:38;98919.13;;;26.32;47.73
79230;BME280;68663;49.122;17.544;2023-07-20T06:41:03;98916.63;;;26.34;47.79
79230;BME280;68663;49.122;17.544;2023-07-20T06:43:29;98929.56;;;26.36;47.81
79230;BME280;68663;49.122;17.544;2023-07-20T06:45:54;98922.97;;;26.39;48.15
79230;BME280;68663;49.122;17.544;2023-07-20T06:48:21;98919.34;;;26.38;47.80
79230;BME280;68663;49.122;17.544;2023-07-20T06:50:46;98919.69;;;26.40;47.97
79230;BME280;68663;49.122;17.544;2023-07-20T06:53:12;98925.69;;;26.42;47.88
79230;BME280;68663;49.122;17.544;2023-07-20T06:55:38;98925.22;;;26.44;47.54
79230;BME280;68663;49.122;17.544;2023-07-20T06:58:03;98919.88;;;26.46;47.84
79230;BME280;68663;49.122;17.544;2023-07-20T07:00:29;98909.34;;;26.46;47.97
79230;BME280;68663;49.122;17.544;2023-07-20T07:02:55;98912.97;;;26.47;47.92
79230;BME280;68663;49.122;17.544;2023-07-20T07:05:20;98917.97;;;26.43;47.71
79230;BME280;68663;49.122;17.544;2023-07-20T07:07:46;98924.31;;;26.47;47.96
79230;BME280;68663;49.122;17.544;2023-07-20T07:10:12;98925.44;;;26.49;47.72
79230;BME280;68663;49.122;17.544;2023-07-20T07:12:37;98924.19;;;26.50;48.00
79230;BME280;68663;49.122;17.544;2023-07-20T07:15:04;98924.97;;;26.51;47.98
79230;BME280;68663;49.122;17.544;2023-07-20T07:17:31;98922.94;;;26.51;48.09
79230;BME280;68663;49.122;17.544;2023-07-20T07:19:58;98926.09;;;26.53;47.93
79230;BME280;68663;49.122;17.544;2023-07-20T07:22:23;98923.41;;;26.50;48.03
79230;BME280;68663;49.122;17.544;2023-07-20T07:24:49;98922.59;;;26.49;47.64
79230;BME280;68663;49.122;17.544;2023-07-20T07:27:14;98921.34;;;26.50;47.70
79230;BME280;68663;49.122;17.544;2023-07-20T07:29:43;98927.34;;;26.52;47.94
79230;BME280;68663;49.122;17.544;2023-07-20T07:32:12;98927.69;;;26.54;47.95
79230;BME280;68663;49.122;17.544;2023-07-20T07:34:37;98937.31;;;26.57;47.99
79230;BME280;68663;49.122;17.544;2023-07-20T07:37:04;98932.91;;;26.56;47.84
79230;BME280;68663;49.122;17.544;2023-07-20T07:39:30;98939.69;;;26.58;47.77
79230;BME280;68663;49.122;17.544;2023-07-20T07:41:56;98931.66;;;26.57;47.77
79230;BME280;68663;49.122;17.544;2023-07-20T07:44:21;98939.69;;;26.58;47.59
79230;BME280;68663;49.122;17.544;2023-07-20T07:46:47;98947.78;;;26.47;47.52
79230;BME280;68663;49.122;17.544;2023-07-20T07:49:13;98947.66;;;26.51;47.42
79230;BME280;68663;49.122;17.544;2023-07-20T07:51:38;98939.50;;;26.53;46.99
79230;BME280;68663;49.122;17.544;2023-07-20T07:54:04;98948.34;;;26.55;46.84
79230;BME280;68663;49.122;17.544;2023-07-20T07:56:29;98943.78;;;26.57;46.96
79230;BME280;68663;49.122;17.544;2023-07-20T07:58:55;98939.25;;;26.60;46.68
79230;BME280;68663;49.122;17.544;2023-07-20T08:01:20;98940.50;;;26.59;47.17
79230;BME280;68663;49.122;17.544;2023-07-20T08:03:45;98940.94;;;26.57;47.12
79230;BME280;68663;49.122;17.544;2023-07-20T08:06:13;98937.78;;;26.55;47.08
79230;BME280;68663;49.122;17.544;2023-07-20T08:08:38;98945.84;;;26.57;47.27
79230;BME280;68663;49.122;17.544;2023-07-20T08:11:04;98932.91;;;26.56;47.29
79230;BME280;68663;49.122;17.544;2023-07-20T08:13:30;98940.16;;;26.57;47.58
79230;BME280;68663;49.122;17.544;2023-07-20T08:15:56;98934.03;;;26.58;47.82
79230;BME280;68663;49.122;17.544;2023-07-20T08:18:22;98931.19;;;26.58;47.44
79230;BME280;68663;49.122;17.544;2023-07-20T08:20:47;98937.66;;;26.59;47.69
79230;BME280;68663;49.122;17.544;2023-07-20T08:23:14;98942.41;;;26.62;47.52
79230;BME280;68663;49.122;17.544;2023-07-20T08:25:40;98941.16;;;26.63;47.53
79230;BME280;68663;49.122;17.544;2023-07-20T08:28:10;98939.91;;;26.64;47.71
79230;BME280;68663;49.122;17.544;2023-07-20T08:30:46;98932.00;;;26.59;47.60
79230;BME280;68663;49.122;17.544;2023-07-20T08:33:17;98939.25;;;26.60;47.54
79230;BME280;68663;49.122;17.544;2023-07-20T08:35:44;98931.06;;;26.62;47.44
79230;BME280;68663;49.122;17.544;2023-07-20T08:38:09;98931.88;;;26.62;47.35
79230;BME280;68663;49.122;17.544;2023-07-20T08:40:43;98934.25;;;26.64;47.27
79230;BME280;68663;49.122;17.544;2023-07-20T08:43:10;98932.19;;;26.64;47.31
79230;BME280;68663;49.122;17.544;2023-07-20T08:45:36;98933.00;;;26.65;47.52
79230;BME280;68663;49.122;17.544;2023-07-20T08:48:05;98932.06;;;26.68;47.27
79230;BME280;68663;49.122;17.544;2023-07-20T08:50:31;98926.41;;;26.68;47.68
79230;BME280;68663;49.122;17.544;2023-07-20T08:52:58;98928.78;;;26.70;47.41
79230;BME280;68663;49.122;17.544;2023-07-20T08:55:25;98928.44;;;26.67;47.84
79230;BME280;68663;49.122;17.544;2023-07-20T08:57:54;98929.81;;;26.63;47.42
79230;BME280;68663;49.122;17.544;2023-07-20T09:00:21;98931.06;;;26.62;47.64
79230;BME280;68663;49.122;17.544;2023-07-20T09:02:50;98929.81;;;26.63;47.57
79230;BME280;68663;49.122;17.544;2023-07-20T09:05:17;98911.56;;;26.64;47.66
79230;BME280;68663;49.122;17.544;2023-07-20T09:07:42;98928.22;;;26.62;47.88
79230;BME280;68663;49.122;17.544;2023-07-20T09:10:08;98931.41;;;26.64;47.87
79230;BME280;68663;49.122;17.544;2023-07-20T09:12:42;98928.56;;;26.64;47.89
79230;BME280;68663;49.122;17.544;2023-07-20T09:15:09;98926.06;;;26.66;48.03
79230;BME280;68663;49.122;17.544;2023-07-20T09:17:35;98927.66;;;26.67;47.84
79230;BME280;68663;49.122;17.544;2023-07-20T09:20:07;98921.19;;;26.66;47.98
79230;BME280;68663;49.122;17.544;2023-07-20T09:22:34;98919.72;;;26.62;47.72
79230;BME280;68663;49.122;17.544;2023-07-20T09:25:00;98923.81;;;26.61;48.06
79230;BME280;68663;49.122;17.544;2023-07-20T09:27:35;98914.84;;;26.62;48.01
79230;BME280;68663;49.122;17.544;2023-07-20T09:30:03;98913.13;;;26.65;47.97
79230;BME280;68663;49.122;17.544;2023-07-20T09:32:29;98918.03;;;26.64;47.88
79230;BME280;68663;49.122;17.544;2023-07-20T09:34:54;98917.69;;;26.62;47.39
79230;BME280;68663;49.122;17.544;2023-07-20T09:37:23;98922.09;;;26.63;47.40
79230;BME280;68663;49.122;17.544;2023-07-20T09:39:52;98919.97;;;26.55;46.82
79230;BME280;68663;49.122;17.544;2023-07-20T09:42:18;98920.31;;;26.57;47.14
79230;BME280;68663;49.122;17.544;2023-07-20T09:44:44;98904.88;;;26.58;46.87
79230;BME280;68663;49.122;17.544;2023-07-20T09:47:10;98909.31;;;26.59;46.99
79230;BME280;68663;49.122;17.544;2023-07-20T09:49:42;98914.63;;;26.57;46.72
79230;BME280;68663;49.122;17.544;2023-07-20T09:52:11;98916.69;;;26.56;47.13
79230;BME280;68663;49.122;17.544;2023-07-20T09:54:38;98913.38;;;26.58;46.89
79230;BME280;68663;49.122;17.544;2023-07-20T09:57:06;98914.97;;;26.59;46.67
79230;BME280;68663;49.122;17.544;2023-07-20T09:59:32;98923.81;;;26.61;46.89
79230;BME280;68663;49.122;17.544;2023-07-20T10:01:58;98913.72;;;26.60;47.32
79230;BME280;68663;49.122;17.544;2023-07-20T10:04:25;98918.16;;;26.61;47.29
79230;BME280;68663;49.122;17.544;2023-07-20T10:06:53;98921.56;;;26.56;47.27
79230;BME280;68663;49.122;17.544;2023-07-20T10:09:20;98921.56;;;26.56;47.25
79230;BME280;68663;49.122;17.544;2023-07-20T10:11:50;98917.47;;;26.57;47.38
79230;BME280;68663;49.122;17.544;2023-07-20T10:14:19;98913.38;;;26.58;47.38
79230;BME280;68663;49.122;17.544;2023-07-20T10:16:55;98913.72;;;26.60;47.56
79230;BME280;68663;49.122;17.544;2023-07-20T10:19:26;98915.31;;;26.61;47.20
79230;BME280;68663;49.122;17.544;2023-07-20T10:22:13;98918.94;;;26.61;47.35
79230;BME280;68663;49.122;17.544;2023-07-20T10:24:39;98910.88;;;26.60;47.50
79230;BME280;68663;49.122;17.544;2023-07-20T10:27:07;98908.38;;;26.62;47.50
79230;BME280;68663;49.122;17.544;2023-07-20T10:29:32;98909.19;;;26.62;47.24
79230;BME280;68663;49.122;17.544;2023-07-20T10:32:00;98916.69;;;26.56;47.58
79230;BME280;68663;49.122;17.544;2023-07-20T10:34:26;98909.31;;;26.59;47.69
79230;BME280;68663;49.122;17.544;2023-07-20T10:36:52;98906.47;;;26.59;47.52
79230;BME280;68663;49.122;17.544;2023-07-20T10:39:25;98908.50;;;26.58;47.77
79230;BME280;68663;49.122;17.544;2023-07-20T10:42:09;98907.72;;;26.58;47.70
79230;BME280;68663;49.122;17.544;2023-07-20T10:44:39;98912.59;;;26.57;47.67
79230;BME280;68663;49.122;17.544;2023-07-20T10:47:10;98902.06;;;26.58;47.74
79230;BME280;68663;49.122;17.544;2023-07-20T10:49:59;98903.75;;;26.55;47.80
79230;BME280;68663;49.122;17.544;2023-07-20T10:52:37;98901.25;;;26.57;47.89
79230;BME280;68663;49.122;17.544;2023-07-20T10:55:15;98908.97;;;26.57;47.91
79230;BME280;68663;49.122;17.544;2023-07-20T10:57:41;98913.38;;;26.58;47.44
79230;BME280;68663;49.122;17.544;2023-07-20T11:00:13;98911.34;;;26.58;47.83
79230;BME280;68663;49.122;17.544;2023-07-20T11:02:47;98906.00;;;26.60;47.73
79230;BME280;68663;49.122;17.544;2023-07-20T11:05:32;98895.78;;;26.63;47.70
79230;BME280;68663;49.122;17.544;2023-07-20T11:07:58;98896.25;;;26.61;48.03
79230;BME280;68663;49.122;17.544;2023-07-20T11:10:23;98889.91;;;26.57;47.90
79230;BME280;68663;49.122;17.544;2023-07-20T11:13:16;98884.91;;;26.61;47.76
79230;BME280;68663;49.122;17.544;2023-07-20T11:16:01;98880.03;;;26.62;47.83
79230;BME280;68663;49.122;17.544;2023-07-20T11:18:29;98871.53;;;26.62;47.64
79230;BME280;68663;49.122;17.544;2023-07-20T11:20:54;98874.34;;;26.62;47.60
79230;BME280;68663;49.122;17.544;2023-07-20T11:23:20;98871.19;;;26.60;47.75
79230;BME280;68663;49.122;17.544;2023-07-20T11:25:46;98879.69;;;26.60;47.51
79230;BME280;68663;49.122;17.544;2023-07-20T11:28:12;98880.94;;;26.59;47.20
79230;BME280;68663;49.122;17.544;2023-07-20T11:30:38;98883.44;;;26.57;47.05
79230;BME280;68663;49.122;17.544;2023-07-20T11:33:05;98880.16;;;26.58;46.98
79230;BME280;68663;49.122;17.544;2023-07-20T11:35:34;98888.34;;;26.56;46.67
79230;BME280;68663;49.122;17.544;2023-07-20T11:38:00;98887.53;;;26.56;46.65
79230;BME280;68663;49.122;17.544;2023-07-20T11:40:25;98890.38;;;26.56;46.43
79230;BME280;68663;49.122;17.544;2023-07-20T11:42:51;98892.41;;;26.55;46.68
79230;BME280;68663;49.122;17.544;2023-07-20T11:45:18;98885.28;;;26.51;46.86
79230;BME280;68663;49.122;17.544;2023-07-20T11:47:44;98885.63;;;26.53;46.91
79230;BME280;68663;49.122;17.544;2023-07-20T11:50:10;98880.28;;;26.55;46.76
79230;BME280;68663;49.122;17.544;2023-07-20T11:52:36;98883.13;;;26.55;46.94
79230;BME280;68663;49.122;17.544;2023-07-20T11:55:03;98892.41;;;26.55;47.04
79230;BME280;68663;49.122;17.544;2023-07-20T11:57:28;98887.88;;;26.58;47.36
79230;BME280;68663;49.122;17.544;2023-07-20T12:00:00;98882.66;;;26.56;47.14
79230;BME280;68663;49.122;17.544;2023-07-20T12:02:27;98882.19;;;26.58;47.08
79230;BME280;68663;49.122;17.544;2023-07-20T12:04:54;98890.25;;;26.59;47.33
79230;BME280;68663;49.122;17.544;2023-07-20T12:07:19;98880.16;;;26.58;47.06
79230;BME280;68663;49.122;17.544;2023-07-20T12:10:11;98884.69;;;26.56;47.25
79230;BME280;68663;49.122;17.544;2023-07-20T12:12:40;98885.16;;;26.54;47.67
79230;BME280;68663;49.122;17.544;2023-07-20T12:15:25;98884.38;;;26.54;47.55
79230;BME280;68663;49.122;17.544;2023-07-20T12:17:59;98881.53;;;26.54;47.46
79230;BME280;68663;49.122;17.544;2023-07-20T12:20:37;98888.78;;;26.55;47.42
79230;BME280;68663;49.122;17.544;2023-07-20T12:23:11;98907.38;;;26.56;47.93
79230;BME280;68663;49.122;17.544;2023-07-20T12:25:46;98905.47;;;26.53;47.53
79230;BME280;68663;49.122;17.544;2023-07-20T12:28:14;98904.22;;;26.54;47.78
79230;BME280;68663;49.122;17.544;2023-07-20T12:30:42;98901.72;;;26.56;47.77
79230;BME280;68663;49.122;17.544;2023-07-20T12:33:07;98915.91;;;26.56;47.76
79230;BME280;68663;49.122;17.544;2023-07-20T12:35:33;98923.59;;;26.55;47.85
79230;BME280;68663;49.122;17.544;2023-07-20T12:37:59;98923.94;;;26.57;47.58
79230;BME280;68663;49.122;17.544;2023-07-20T12:40:25;98934.50;;;26.57;47.69
79230;BME280;68663;49.122;17.544;2023-07-20T12:42:50;98921.91;;;26.58;47.81
79230;BME280;68663;49.122;17.544;2023-07-20T12:45:16;98934.03;;;26.58;47.69
79230;BME280;68663;49.122;17.544;2023-07-20T12:47:41;98932.44;;;26.57;47.86
79230;BME280;68663;49.122;17.544;2023-07-20T12:50:09;98934.50;;;26.57;47.86
79230;BME280;68663;49.122;17.544;2023-07-20T12:52:39;98940.50;;;26.59;47.63
79230;BME280;68663;49.122;17.544;2023-07-20T12:55:06;98942.06;;;26.60;47.66
79230;BME280;68663;49.122;17.544;2023-07-20T12:57:35;98948.53;;;26.60;47.79
79230;BME280;68663;49.122;17.544;2023-07-20T13:00:03;98954.66;;;26.59;47.99
79230;BME280;68663;49.122;17.544;2023-07-20T13:02:31;98950.84;;;26.53;48.00
79230;BME280;68663;49.122;17.544;2023-07-20T13:04:57;98950.03;;;26.52;47.78